Wetterdaten: aktuell Samstag, 05.09.2026 09:30
Datum Zeit Temp. A. Feuchte A. Luftdruck Regen Wind Richtung Richtung Taupunkt Windchill Windböen Empfang
05.09.2026 09:30 15,3 °C 86 % 1015,9 hPa 0,0 l/m² 11,2 km/h (2 Bft) SW 230 ° 13,0 °C 15,3 °C 28,2 km/h (4 Bft) 99 %
05.09.2026 09:20 15,4 °C 85 % 1015,9 hPa 0,0 l/m² 14,0 km/h (3 Bft) SW 233 ° 12,9 °C 15,4 °C 32,6 km/h (5 Bft) 100 %
05.09.2026 09:10 15,5 °C 84 % 1015,8 hPa 0,0 l/m² 15,3 km/h (3 Bft) SW 223 ° 12,8 °C 15,5 °C 30,4 km/h (5 Bft) 99 %
05.09.2026 09:00 15,2 °C 85 % 1015,6 hPa 0,0 l/m² 15,2 km/h (3 Bft) S-SW 200 ° 12,7 °C 15,2 °C 34,8 km/h (5 Bft) 98 %
05.09.2026 08:50 14,9 °C 86 % 1015,4 hPa 0,0 l/m² 12,1 km/h (2 Bft) SW 226 ° 12,6 °C 14,9 °C 28,2 km/h (4 Bft) 100 %
05.09.2026 08:40 14,6 °C 86 % 1015,5 hPa 0,0 l/m² 10,2 km/h (2 Bft) SW 231 ° 12,3 °C 14,6 °C 21,7 km/h (4 Bft) 100 %
05.09.2026 08:30 14,5 °C 86 % 1015,3 hPa 0,0 l/m² 11,6 km/h (2 Bft) S-SW 202 ° 12,2 °C 14,5 °C 23,9 km/h (4 Bft) 98 %
05.09.2026 08:20 14,3 °C 86 % 1015,3 hPa 0,0 l/m² 12,1 km/h (2 Bft) S 177 ° 12,0 °C 14,3 °C 28,2 km/h (4 Bft) 100 %
05.09.2026 08:10 14,2 °C 86 % 1015,4 hPa 0,0 l/m² 7,7 km/h (2 Bft) SW 225 ° 11,9 °C 14,2 °C 19,6 km/h (3 Bft) 100 %
05.09.2026 08:00 14,2 °C 86 % 1015,3 hPa 0,0 l/m² 12,0 km/h (2 Bft) S-SW 213 ° 11,9 °C 14,2 °C 30,4 km/h (5 Bft) 100 %
05.09.2026 07:50 14,1 °C 87 % 1015,2 hPa 0,0 l/m² 11,3 km/h (2 Bft) SW 223 ° 12,0 °C 14,1 °C 21,7 km/h (4 Bft) 100 %
05.09.2026 07:40 14,0 °C 87 % 1015,0 hPa 0,0 l/m² 11,7 km/h (2 Bft) SW 223 ° 11,9 °C 14,0 °C 26,1 km/h (4 Bft) 100 %
05.09.2026 07:30 13,9 °C 87 % 1014,9 hPa 0,0 l/m² 10,6 km/h (2 Bft) S-SW 211 ° 11,8 °C 13,9 °C 26,1 km/h (4 Bft) 100 %
05.09.2026 07:20 13,8 °C 87 % 1014,9 hPa 0,0 l/m² 10,5 km/h (2 Bft) S-SW 201 ° 11,7 °C 13,8 °C 26,1 km/h (4 Bft) 99 %
05.09.2026 07:10 13,8 °C 87 % 1014,9 hPa 0,0 l/m² 8,9 km/h (2 Bft) SW 219 ° 11,7 °C 13,8 °C 26,1 km/h (4 Bft) 100 %
05.09.2026 07:00 13,7 °C 88 % 1014,9 hPa 0,0 l/m² 10,2 km/h (2 Bft) SW 236 ° 11,7 °C 13,7 °C 21,7 km/h (4 Bft) 99 %
05.09.2026 06:50 13,6 °C 88 % 1014,7 hPa 0,0 l/m² 9,9 km/h (2 Bft) S-SW 198 ° 11,6 °C 13,6 °C 23,9 km/h (4 Bft) 99 %
05.09.2026 06:40 13,5 °C 88 % 1014,6 hPa 0,0 l/m² 8,6 km/h (2 Bft) SW 220 ° 11,6 °C 13,5 °C 17,4 km/h (3 Bft) 100 %
05.09.2026 06:30 13,6 °C 88 % 1014,5 hPa 0,0 l/m² 7,3 km/h (2 Bft) S-SW 203 ° 11,6 °C 13,6 °C 19,6 km/h (3 Bft) 99 %
05.09.2026 06:20 13,5 °C 88 % 1014,6 hPa 0,0 l/m² 9,3 km/h (2 Bft) S-SW 208 ° 11,6 °C 13,5 °C 19,6 km/h (3 Bft) 98 %
05.09.2026 06:10 13,4 °C 88 % 1014,4 hPa 0,0 l/m² 8,2 km/h (2 Bft) SW 225 ° 11,5 °C 13,4 °C 17,4 km/h (3 Bft) 100 %
05.09.2026 06:00 13,4 °C 89 % 1014,4 hPa 0,0 l/m² 7,1 km/h (2 Bft) SW 221 ° 11,6 °C 13,4 °C 15,2 km/h (3 Bft) 99 %
05.09.2026 05:50 13,3 °C 89 % 1014,6 hPa 0,0 l/m² 7,8 km/h (2 Bft) W-SW 243 ° 11,5 °C 13,3 °C 21,7 km/h (4 Bft) 100 %
05.09.2026 05:40 13,3 °C 89 % 1014,5 hPa 0,0 l/m² 8,1 km/h (2 Bft) S-SW 208 ° 11,5 °C 13,3 °C 17,4 km/h (3 Bft) 99 %
05.09.2026 05:30 13,4 °C 89 % 1014,5 hPa 0,0 l/m² 7,5 km/h (2 Bft) S-SW 213 ° 11,6 °C 13,4 °C 17,4 km/h (3 Bft) 100 %
05.09.2026 05:20 13,4 °C 89 % 1014,5 hPa 0,0 l/m² 9,0 km/h (2 Bft) S-SW 204 ° 11,6 °C 13,4 °C 17,4 km/h (3 Bft) 100 %
05.09.2026 05:10 13,5 °C 88 % 1014,4 hPa 0,0 l/m² 8,9 km/h (2 Bft) SW 216 ° 11,6 °C 13,5 °C 21,7 km/h (4 Bft) 100 %
05.09.2026 05:00 13,6 °C 88 % 1014,4 hPa 0,0 l/m² 8,5 km/h (2 Bft) SW 227 ° 11,6 °C 13,6 °C 17,4 km/h (3 Bft) 99 %
05.09.2026 04:50 13,6 °C 88 % 1014,3 hPa 0,0 l/m² 9,0 km/h (2 Bft) SW 214 ° 11,6 °C 13,6 °C 17,4 km/h (3 Bft) 100 %
05.09.2026 04:40 13,6 °C 89 % 1014,4 hPa 0,0 l/m² 7,8 km/h (2 Bft) SW 234 ° 11,8 °C 13,6 °C 19,6 km/h (3 Bft) 99 %
05.09.2026 04:30 13,6 °C 89 % 1014,3 hPa 0,0 l/m² 7,3 km/h (2 Bft) SW 214 ° 11,8 °C 13,6 °C 13,0 km/h (3 Bft) 99 %
05.09.2026 04:20 13,6 °C 89 % 1014,2 hPa 0,0 l/m² 6,9 km/h (2 Bft) SW 219 ° 11,8 °C 13,6 °C 17,4 km/h (3 Bft) 98 %
05.09.2026 04:10 13,7 °C 88 % 1014,2 hPa 0,0 l/m² 8,5 km/h (2 Bft) SW 221 ° 11,7 °C 13,7 °C 19,6 km/h (3 Bft) 100 %
05.09.2026 04:00 13,8 °C 88 % 1014,1 hPa 0,0 l/m² 7,2 km/h (2 Bft) S-SW 201 ° 11,8 °C 13,8 °C 17,4 km/h (3 Bft) 100 %
05.09.2026 03:50 13,9 °C 88 % 1014,0 hPa 0,0 l/m² 7,1 km/h (2 Bft) S-SW 201 ° 11,9 °C 13,9 °C 15,2 km/h (3 Bft) 99 %
05.09.2026 03:40 13,9 °C 88 % 1013,9 hPa 0,0 l/m² 7,4 km/h (2 Bft) S-SW 208 ° 11,9 °C 13,9 °C 19,6 km/h (3 Bft) 98 %
05.09.2026 03:30 13,9 °C 88 % 1013,8 hPa 0,0 l/m² 6,7 km/h (2 Bft) S-SW 203 ° 11,9 °C 13,9 °C 17,4 km/h (3 Bft) 99 %
05.09.2026 03:20 13,9 °C 88 % 1013,8 hPa 0,0 l/m² 6,5 km/h (2 Bft) S-SW 209 ° 11,9 °C 13,9 °C 15,2 km/h (3 Bft) 100 %
05.09.2026 03:10 14,0 °C 88 % 1013,7 hPa 0,0 l/m² 7,0 km/h (2 Bft) S-SW 208 ° 12,0 °C 14,0 °C 15,2 km/h (3 Bft) 100 %
05.09.2026 03:00 14,1 °C 88 % 1013,7 hPa 0,0 l/m² 7,3 km/h (2 Bft) SW 234 ° 12,1 °C 14,1 °C 17,4 km/h (3 Bft) 100 %
05.09.2026 02:50 14,1 °C 88 % 1013,8 hPa 0,0 l/m² 7,7 km/h (2 Bft) SW 217 ° 12,1 °C 14,1 °C 21,7 km/h (4 Bft) 99 %
05.09.2026 02:40 14,2 °C 88 % 1013,8 hPa 0,0 l/m² 8,8 km/h (2 Bft) S-SW 209 ° 12,2 °C 14,2 °C 23,9 km/h (4 Bft) 100 %
05.09.2026 02:30 14,3 °C 88 % 1013,7 hPa 0,0 l/m² 6,6 km/h (2 Bft) SW 217 ° 12,3 °C 14,3 °C 15,2 km/h (3 Bft) 99 %
05.09.2026 02:20 14,4 °C 87 % 1013,6 hPa 0,0 l/m² 5,5 km/h (1 Bft) S-SW 192 ° 12,3 °C 14,4 °C 13,0 km/h (3 Bft) 100 %
05.09.2026 02:10 14,6 °C 87 % 1013,5 hPa 0,0 l/m² 7,1 km/h (2 Bft) SW 222 ° 12,5 °C 14,6 °C 17,4 km/h (3 Bft) 99 %
05.09.2026 02:00 14,7 °C 87 % 1013,5 hPa 0,0 l/m² 6,9 km/h (2 Bft) SW 215 ° 12,6 °C 14,7 °C 17,4 km/h (3 Bft) 100 %
05.09.2026 01:50 14,9 °C 86 % 1013,4 hPa 0,0 l/m² 6,9 km/h (2 Bft) SW 230 ° 12,6 °C 14,9 °C 13,0 km/h (3 Bft) 100 %
05.09.2026 01:40 15,1 °C 85 % 1013,5 hPa 0,0 l/m² 7,1 km/h (2 Bft) S-SW 209 ° 12,6 °C 15,1 °C 15,2 km/h (3 Bft) 99 %
05.09.2026 01:30 15,2 °C 85 % 1013,4 hPa 0,0 l/m² 8,3 km/h (2 Bft) S-SW 205 ° 12,7 °C 15,2 °C 17,4 km/h (3 Bft) 98 %
05.09.2026 01:20 15,3 °C 84 % 1013,3 hPa 0,0 l/m² 7,5 km/h (2 Bft) S-SW 211 ° 12,6 °C 15,3 °C 17,4 km/h (3 Bft) 100 %
05.09.2026 01:10 15,4 °C 84 % 1013,2 hPa 0,0 l/m² 9,8 km/h (2 Bft) SW 227 ° 12,7 °C 15,4 °C 21,7 km/h (4 Bft) 99 %
05.09.2026 01:00 15,3 °C 84 % 1013,2 hPa 0,0 l/m² 8,2 km/h (2 Bft) S-SW 195 ° 12,6 °C 15,3 °C 19,6 km/h (3 Bft) 100 %
05.09.2026 00:50 15,4 °C 84 % 1013,1 hPa 0,0 l/m² 7,4 km/h (2 Bft) SW 223 ° 12,7 °C 15,4 °C 13,0 km/h (3 Bft) 99 %
05.09.2026 00:40 15,5 °C 83 % 1013,1 hPa 0,0 l/m² 6,9 km/h (2 Bft) S-SW 205 ° 12,6 °C 15,5 °C 13,0 km/h (3 Bft) 100 %
05.09.2026 00:30 15,6 °C 83 % 1012,9 hPa 0,0 l/m² 7,1 km/h (2 Bft) S-SW 209 ° 12,7 °C 15,6 °C 19,6 km/h (3 Bft) 100 %
05.09.2026 00:20 15,7 °C 82 % 1012,8 hPa 0,0 l/m² 7,0 km/h (2 Bft) S-SW 211 ° 12,6 °C 15,7 °C 13,0 km/h (3 Bft) 99 %
05.09.2026 00:10 15,8 °C 82 % 1012,8 hPa 0,0 l/m² 6,5 km/h (2 Bft) SW 226 ° 12,7 °C 15,8 °C 13,0 km/h (3 Bft) 99 %
05.09.2026 00:00 15,9 °C 82 % 1012,7 hPa 0,0 l/m² 7,6 km/h (2 Bft) SW 215 ° 12,8 °C 15,9 °C 19,6 km/h (3 Bft) 99 %
04.09.2026 23:50 15,9 °C 82 % 1012,7 hPa 0,0 l/m² 6,1 km/h (2 Bft) W-SW 239 ° 12,8 °C 15,9 °C 17,4 km/h (3 Bft) 100 %
04.09.2026 23:40 15,9 °C 82 % 1012,7 hPa 0,0 l/m² 7,2 km/h (2 Bft) SW 215 ° 12,8 °C 15,9 °C 19,6 km/h (3 Bft) 99 %
04.09.2026 23:30 16,1 °C 81 % 1012,6 hPa 0,0 l/m² 9,0 km/h (2 Bft) SW 224 ° 12,8 °C 16,1 °C 19,6 km/h (3 Bft) 99 %
04.09.2026 23:20 16,2 °C 81 % 1012,7 hPa 0,0 l/m² 8,5 km/h (2 Bft) W-SW 237 ° 12,9 °C 16,2 °C 21,7 km/h (4 Bft) 100 %
04.09.2026 23:10 16,2 °C 81 % 1012,6 hPa 0,0 l/m² 8,3 km/h (2 Bft) S-SW 203 ° 12,9 °C 16,2 °C 23,9 km/h (4 Bft) 99 %
04.09.2026 23:00 16,2 °C 80 % 1012,6 hPa 0,0 l/m² 10,6 km/h (2 Bft) S-SW 213 ° 12,7 °C 16,2 °C 32,6 km/h (5 Bft) 100 %
04.09.2026 22:50 16,2 °C 80 % 1012,5 hPa 0,0 l/m² 8,3 km/h (2 Bft) S-SW 209 ° 12,7 °C 16,2 °C 21,7 km/h (4 Bft) 99 %
04.09.2026 22:40 16,2 °C 80 % 1012,4 hPa 0,0 l/m² 7,2 km/h (2 Bft) W-SW 258 ° 12,7 °C 16,2 °C 17,4 km/h (3 Bft) 99 %
04.09.2026 22:30 16,2 °C 81 % 1012,4 hPa 0,0 l/m² 7,9 km/h (2 Bft) S-SW 207 ° 12,9 °C 16,2 °C 19,6 km/h (3 Bft) 99 %
04.09.2026 22:20 16,3 °C 80 % 1012,3 hPa 0,0 l/m² 7,9 km/h (2 Bft) SW 235 ° 12,8 °C 16,3 °C 21,7 km/h (4 Bft) 99 %
04.09.2026 22:10 16,3 °C 80 % 1012,2 hPa 0,0 l/m² 6,8 km/h (2 Bft) W-SW 243 ° 12,8 °C 16,3 °C 19,6 km/h (3 Bft) 100 %
04.09.2026 22:00 16,4 °C 80 % 1012,1 hPa 0,0 l/m² 7,7 km/h (2 Bft) S-SW 205 ° 12,9 °C 16,4 °C 19,6 km/h (3 Bft) 99 %
04.09.2026 21:50 16,6 °C 79 % 1012,1 hPa 0,0 l/m² 7,0 km/h (2 Bft) S-SW 208 ° 12,9 °C 16,6 °C 19,6 km/h (3 Bft) 99 %
04.09.2026 21:40 16,7 °C 79 % 1012,0 hPa 0,0 l/m² 7,2 km/h (2 Bft) SW 221 ° 13,0 °C 16,7 °C 19,6 km/h (3 Bft) 98 %
04.09.2026 21:30 16,8 °C 78 % 1011,9 hPa 0,0 l/m² 6,0 km/h (2 Bft) W-NW 297 ° 12,9 °C 16,8 °C 19,6 km/h (3 Bft) 100 %
04.09.2026 21:20 16,9 °C 78 % 1011,8 hPa 0,0 l/m² 6,8 km/h (2 Bft) W-SW 250 ° 13,0 °C 16,9 °C 19,6 km/h (3 Bft) 99 %
04.09.2026 21:10 17,1 °C 77 % 1011,6 hPa 0,0 l/m² 7,6 km/h (2 Bft) S-SW 206 ° 13,0 °C 17,1 °C 23,9 km/h (4 Bft) 100 %
04.09.2026 21:00 17,2 °C 76 % 1011,5 hPa 0,0 l/m² 9,2 km/h (2 Bft) W-NW 284 ° 12,9 °C 17,2 °C 28,2 km/h (4 Bft) 99 %
04.09.2026 20:50 17,3 °C 75 % 1011,4 hPa 0,0 l/m² 7,1 km/h (2 Bft) W-SW 237 ° 12,8 °C 17,3 °C 28,2 km/h (4 Bft) 98 %
04.09.2026 20:40 17,4 °C 75 % 1011,1 hPa 0,0 l/m² 10,1 km/h (2 Bft) N-NO 31 ° 12,9 °C 17,4 °C 26,1 km/h (4 Bft) 99 %
04.09.2026 20:30 17,5 °C 75 % 1010,9 hPa 0,0 l/m² 8,4 km/h (2 Bft) W 281 ° 13,0 °C 17,5 °C 32,6 km/h (5 Bft) 99 %
04.09.2026 20:20 17,6 °C 76 % 1010,8 hPa 0,0 l/m² 10,0 km/h (2 Bft) W-SW 240 ° 13,3 °C 17,6 °C 26,1 km/h (4 Bft) 100 %
04.09.2026 20:10 17,6 °C 77 % 1010,7 hPa 0,0 l/m² 7,2 km/h (2 Bft) W-SW 242 ° 13,5 °C 17,6 °C 23,9 km/h (4 Bft) 100 %
04.09.2026 20:00 17,7 °C 79 % 1010,4 hPa 0,0 l/m² 8,2 km/h (2 Bft) W-SW 238 ° 14,0 °C 17,7 °C 23,9 km/h (4 Bft) 100 %
04.09.2026 19:50 17,7 °C 79 % 1010,3 hPa 0,0 l/m² 9,2 km/h (2 Bft) W-NW 282 ° 14,0 °C 17,7 °C 26,1 km/h (4 Bft) 99 %
04.09.2026 19:40 17,8 °C 79 % 1010,2 hPa 0,0 l/m² 8,0 km/h (2 Bft) N 355 ° 14,1 °C 17,8 °C 28,2 km/h (4 Bft) 100 %
04.09.2026 19:30 17,9 °C 80 % 1010,1 hPa 0,0 l/m² 9,4 km/h (2 Bft) W-NW 297 ° 14,4 °C 17,9 °C 23,9 km/h (4 Bft) 100 %
04.09.2026 19:20 17,9 °C 80 % 1010,1 hPa 0,0 l/m² 9,9 km/h (2 Bft) W-SW 242 ° 14,4 °C 17,9 °C 23,9 km/h (4 Bft) 100 %
04.09.2026 19:10 18,1 °C 80 % 1010,1 hPa 0,0 l/m² 8,4 km/h (2 Bft) W-SW 254 ° 14,6 °C 18,1 °C 30,4 km/h (5 Bft) 99 %
04.09.2026 19:00 18,1 °C 80 % 1010,1 hPa 0,0 l/m² 9,3 km/h (2 Bft) NO 51 ° 14,6 °C 18,1 °C 28,2 km/h (4 Bft) 97 %
04.09.2026 18:50 18,2 °C 80 % 1010,0 hPa 0,0 l/m² 6,6 km/h (2 Bft) S-SW 209 ° 14,7 °C 18,2 °C 28,2 km/h (4 Bft) 100 %
04.09.2026 18:40 18,3 °C 80 % 1009,8 hPa 0,0 l/m² 9,0 km/h (2 Bft) W-NW 293 ° 14,8 °C 18,3 °C 34,8 km/h (5 Bft) 99 %
04.09.2026 18:32 18,3 °C 79 % 1009,6 hPa 0,0 l/m² 8,8 km/h (2 Bft) W-SW 237 ° 14,6 °C 18,3 °C 17,4 km/h (3 Bft) 100 %
04.09.2026 18:31 18,3 °C 80 % 1009,5 hPa 0,0 l/m² 10,1 km/h (2 Bft) SW 229 ° 14,8 °C 18,3 °C 30,4 km/h (5 Bft) 99 %
04.09.2026 18:20 18,4 °C 80 % 1009,5 hPa 0,0 l/m² 7,9 km/h (2 Bft) SW 218 ° 14,9 °C 18,4 °C 26,1 km/h (4 Bft) 100 %
04.09.2026 18:10 18,5 °C 81 % 1009,5 hPa 0,0 l/m² 8,8 km/h (2 Bft) W-NW 286 ° 15,2 °C 18,5 °C 23,9 km/h (4 Bft) 99 %
04.09.2026 18:00 18,6 °C 82 % 1009,2 hPa 0,0 l/m² 10,1 km/h (2 Bft) W-SW 253 ° 15,5 °C 18,6 °C 30,4 km/h (5 Bft) 98 %
04.09.2026 17:50 18,6 °C 83 % 1009,4 hPa 0,0 l/m² 9,4 km/h (2 Bft) W-NW 294 ° 15,7 °C 18,6 °C 32,6 km/h (5 Bft) 99 %
04.09.2026 17:40 18,6 °C 84 % 1009,2 hPa 0,0 l/m² 9,1 km/h (2 Bft) NW 304 ° 15,8 °C 18,6 °C 28,2 km/h (4 Bft) 100 %
04.09.2026 17:30 18,6 °C 85 % 1009,2 hPa 0,0 l/m² 9,8 km/h (2 Bft) W 274 ° 16,0 °C 18,6 °C 32,6 km/h (5 Bft) 100 %
04.09.2026 17:20 18,6 °C 86 % 1008,8 hPa 0,0 l/m² 8,4 km/h (2 Bft) W-SW 250 ° 16,2 °C 18,6 °C 30,4 km/h (5 Bft) 98 %
04.09.2026 17:10 18,4 °C 87 % 1008,9 hPa 0,0 l/m² 9,6 km/h (2 Bft) SW 219 ° 16,2 °C 18,4 °C 28,2 km/h (4 Bft) 100 %
04.09.2026 17:00 18,3 °C 88 % 1008,8 hPa 0,0 l/m² 10,0 km/h (2 Bft) NW 313 ° 16,3 °C 18,3 °C 32,6 km/h (5 Bft) 99 %
04.09.2026 16:50 18,1 °C 90 % 1008,9 hPa 0,0 l/m² 10,0 km/h (2 Bft) SW 217 ° 16,4 °C 18,1 °C 28,2 km/h (4 Bft) 100 %
04.09.2026 16:40 17,8 °C 90 % 1008,4 hPa 0,2 l/m² 11,3 km/h (2 Bft) SW 229 ° 16,1 °C 17,8 °C 43,5 km/h (6 Bft) 100 %
04.09.2026 16:30 17,7 °C 91 % 1008,3 hPa 0,0 l/m² 13,2 km/h (3 Bft) S 177 ° 16,2 °C 17,7 °C 32,6 km/h (5 Bft) 99 %
04.09.2026 16:20 17,4 °C 91 % 1008,2 hPa 0,0 l/m² 13,5 km/h (3 Bft) SW 222 ° 15,9 °C 17,4 °C 30,4 km/h (5 Bft) 98 %
04.09.2026 16:10 17,3 °C 90 % 1008,1 hPa 0,0 l/m² 12,2 km/h (2 Bft) SW 214 ° 15,6 °C 17,3 °C 32,6 km/h (5 Bft) 100 %
04.09.2026 16:00 17,4 °C 91 % 1008,0 hPa 0,0 l/m² 12,3 km/h (3 Bft) S-SW 205 ° 15,9 °C 17,4 °C 28,2 km/h (4 Bft) 98 %
04.09.2026 15:50 17,4 °C 91 % 1007,9 hPa 0,0 l/m² 14,1 km/h (3 Bft) W 264 ° 15,9 °C 17,4 °C 32,6 km/h (5 Bft) 100 %
04.09.2026 15:40 17,6 °C 92 % 1007,5 hPa 0,0 l/m² 14,5 km/h (3 Bft) S-SW 212 ° 16,3 °C 17,6 °C 45,6 km/h (6 Bft) 100 %
04.09.2026 15:30 17,6 °C 93 % 1007,7 hPa 0,0 l/m² 14,0 km/h (3 Bft) SW 230 ° 16,5 °C 17,6 °C 30,4 km/h (5 Bft) 99 %
04.09.2026 15:20 17,6 °C 93 % 1007,9 hPa 0,2 l/m² 10,9 km/h (2 Bft) S-SW 208 ° 16,5 °C 17,6 °C 26,1 km/h (4 Bft) 99 %
04.09.2026 15:10 17,6 °C 93 % 1007,9 hPa 0,0 l/m² 16,1 km/h (3 Bft) SW 236 ° 16,5 °C 17,6 °C 41,3 km/h (6 Bft) 99 %
04.09.2026 15:00 17,5 °C 93 % 1007,3 hPa 0,2 l/m² 13,4 km/h (3 Bft) W-SW 244 ° 16,4 °C 17,5 °C 23,9 km/h (4 Bft) 100 %
04.09.2026 14:50 17,4 °C 93 % 1007,6 hPa 0,0 l/m² 8,4 km/h (2 Bft) SW 221 ° 16,3 °C 17,4 °C 28,2 km/h (4 Bft) 98 %
04.09.2026 14:40 17,4 °C 92 % 1007,6 hPa 0,4 l/m² 10,3 km/h (2 Bft) S-SW 204 ° 16,1 °C 17,4 °C 32,6 km/h (5 Bft) 100 %
04.09.2026 14:30 17,7 °C 91 % 1008,1 hPa 1,2 l/m² 9,6 km/h (2 Bft) W 261 ° 16,2 °C 17,7 °C 36,9 km/h (5 Bft) 100 %
04.09.2026 14:20 17,9 °C 90 % 1007,8 hPa 0,6 l/m² 12,0 km/h (2 Bft) SW 234 ° 16,2 °C 17,9 °C 23,9 km/h (4 Bft) 98 %
04.09.2026 14:10 18,2 °C 89 % 1007,5 hPa 0,2 l/m² 11,6 km/h (2 Bft) W 261 ° 16,4 °C 18,2 °C 30,4 km/h (5 Bft) 100 %
04.09.2026 14:00 18,5 °C 88 % 1007,6 hPa 0,4 l/m² 12,0 km/h (2 Bft) S 190 ° 16,5 °C 18,5 °C 23,9 km/h (4 Bft) 99 %
04.09.2026 13:50 18,9 °C 86 % 1007,6 hPa 0,0 l/m² 12,7 km/h (3 Bft) SW 223 ° 16,5 °C 18,9 °C 30,4 km/h (5 Bft) 98 %
04.09.2026 13:40 19,5 °C 84 % 1007,6 hPa 0,0 l/m² 18,5 km/h (3 Bft) SW 219 ° 16,7 °C 19,5 °C 39,1 km/h (6 Bft) 99 %
04.09.2026 13:30 19,9 °C 87 % 1007,7 hPa 0,2 l/m² 15,2 km/h (3 Bft) SW 219 ° 17,7 °C 19,9 °C 36,9 km/h (5 Bft) 99 %
04.09.2026 13:20 20,1 °C 90 % 1007,6 hPa 0,0 l/m² 13,7 km/h (3 Bft) S-SW 208 ° 18,4 °C 20,1 °C 30,4 km/h (5 Bft) 100 %
04.09.2026 13:10 20,1 °C 90 % 1007,4 hPa 0,0 l/m² 13,8 km/h (3 Bft) W-NW 286 ° 18,4 °C 20,1 °C 34,8 km/h (5 Bft) 100 %
04.09.2026 13:00 20,0 °C 91 % 1007,1 hPa 0,0 l/m² 15,4 km/h (3 Bft) S-SW 200 ° 18,5 °C 20,0 °C 36,9 km/h (5 Bft) 100 %
04.09.2026 12:50 19,8 °C 92 % 1007,1 hPa 0,0 l/m² 21,5 km/h (4 Bft) S-SW 195 ° 18,5 °C 19,8 °C 41,3 km/h (6 Bft) 100 %
04.09.2026 12:40 19,8 °C 92 % 1007,0 hPa 0,0 l/m² 18,1 km/h (3 Bft) S-SW 197 ° 18,5 °C 19,8 °C 39,1 km/h (6 Bft) 100 %
04.09.2026 12:30 19,9 °C 91 % 1006,9 hPa 0,2 l/m² 19,7 km/h (3 Bft) SW 219 ° 18,4 °C 19,9 °C 47,8 km/h (6 Bft) 100 %
04.09.2026 12:20 20,1 °C 90 % 1006,7 hPa 0,0 l/m² 22,8 km/h (4 Bft) W-SW 238 ° 18,4 °C 20,1 °C 47,8 km/h (6 Bft) 97 %
04.09.2026 12:10 20,3 °C 88 % 1006,7 hPa 0,0 l/m² 20,8 km/h (4 Bft) SW 215 ° 18,2 °C 20,3 °C 50,0 km/h (6 Bft) 99 %
04.09.2026 12:00 20,5 °C 86 % 1006,6 hPa 0,0 l/m² 21,7 km/h (4 Bft) W-NW 289 ° 18,1 °C 20,5 °C 41,3 km/h (6 Bft) 99 %
04.09.2026 11:50 20,5 °C 86 % 1006,5 hPa 0,0 l/m² 22,6 km/h (4 Bft) SW 214 ° 18,1 °C 20,5 °C 50,0 km/h (6 Bft) 99 %
04.09.2026 11:40 20,4 °C 86 % 1006,7 hPa 0,2 l/m² 26,4 km/h (4 Bft) W-SW 238 ° 18,0 °C 20,4 °C 54,3 km/h (7 Bft) 100 %
04.09.2026 11:30 20,3 °C 87 % 1006,7 hPa 0,0 l/m² 22,5 km/h (4 Bft) S-SW 205 ° 18,1 °C 20,3 °C 50,0 km/h (6 Bft) 99 %
04.09.2026 11:20 20,2 °C 87 % 1006,7 hPa 0,0 l/m² 19,5 km/h (3 Bft) S-SW 205 ° 18,0 °C 20,2 °C 36,9 km/h (5 Bft) 100 %
04.09.2026 11:10 20,1 °C 88 % 1006,8 hPa 0,0 l/m² 22,6 km/h (4 Bft) SW 234 ° 18,0 °C 20,1 °C 47,8 km/h (6 Bft) 100 %
04.09.2026 11:00 19,8 °C 90 % 1006,9 hPa 0,0 l/m² 17,5 km/h (3 Bft) S-SW 205 ° 18,1 °C 19,8 °C 39,1 km/h (6 Bft) 100 %
04.09.2026 10:50 19,6 °C 90 % 1007,1 hPa 0,0 l/m² 18,3 km/h (3 Bft) S-SW 196 ° 17,9 °C 19,6 °C 41,3 km/h (6 Bft) 99 %
04.09.2026 10:40 19,9 °C 88 % 1007,1 hPa 0,2 l/m² 19,4 km/h (3 Bft) W-SW 239 ° 17,8 °C 19,9 °C 45,6 km/h (6 Bft) 100 %
04.09.2026 10:30 20,6 °C 84 % 1006,9 hPa 0,2 l/m² 18,8 km/h (3 Bft) S-SW 198 ° 17,8 °C 20,6 °C 43,5 km/h (6 Bft) 99 %
04.09.2026 10:20 20,8 °C 81 % 1007,0 hPa 0,0 l/m² 22,6 km/h (4 Bft) SW 218 ° 17,4 °C 20,8 °C 47,8 km/h (6 Bft) 100 %
04.09.2026 10:10 20,8 °C 81 % 1007,1 hPa 0,0 l/m² 19,3 km/h (3 Bft) S-SW 205 ° 17,4 °C 20,8 °C 41,3 km/h (6 Bft) 98 %
04.09.2026 10:00 20,7 °C 82 % 1007,3 hPa 0,0 l/m² 21,8 km/h (4 Bft) W-SW 254 ° 17,5 °C 20,7 °C 52,1 km/h (7 Bft) 100 %
_ Min-Zeit 05:40 20:30 11:50 - 02:20 - - 06:10 05:40 00:10 12:20
Minimum _ 13,3 °C 75 % 1006,5 hPa - 5,5 km/h (1 Bft) - - 11,5 °C 13,3 °C 13,0 km/h (3 Bft) 97 %
_ Max-Zeit 10:30 14:50 09:20 14:30 11:40 - - 13:00 10:10 11:40 11:00
Maximum _ 20,9 °C 93 % 1015,9 hPa 1,2 l/m² 26,4 km/h
W-SW (4 Bft)
- - 18,5 °C 20,8 °C 54,3 km/h
S-SW (7 Bft)
100 %
Durchschnitt _ 16,9 °C 85 % 1011,0 hPa #4,4 l/m² 11,7 km/h (2 Bft) SW - 14,4 °C 16,9 °C 28,7 km/h (4 Bft) 99 %